Time;durP1;ratioP1;P1;durP2;ratioP2;P2;SDS_P1;SDS_P2;PMS_P1;PMS_P2;Temp;Humidity;BMP_temperature;BMP_pressure;BME280_temperature;BME280_humidity;BME280_pressure;Samples;Min_cycle;Max_cycle;Signal;HPM_P1;HPM_P2
2022/11/15 00:02:20;;;;;;;54.10;31.80;;;;;;;;;;5008581;28;20561;-74
2022/11/15 00:05:05;;;;;;;59.78;34.60;;;;;;;;;;4999433;28;20041;-73
2022/11/15 00:07:50;;;;;;;55.17;33.25;;;;;;;;;;5003810;28;20095;-74
2022/11/15 00:10:35;;;;;;;52.40;30.80;;;;;;;;;;5006211;28;20057;-73
2022/11/15 00:13:19;;;;;;;57.63;34.58;;;;;;;;;;5003224;28;20096;-73
2022/11/15 00:16:04;;;;;;;55.38;31.88;;;;;;;;;;5004156;28;20096;-74
2022/11/15 00:18:50;;;;;;;51.90;29.38;;;;;;;;;;5007051;28;20056;-74
2022/11/15 00:21:35;;;;;;;48.55;30.92;;;;;;;;;;4999711;28;20049;-74
2022/11/15 00:24:19;;;;;;;46.85;29.08;;;;;;;;;;5025375;28;20099;-74
2022/11/15 00:27:03;;;;;;;45.78;29.08;;;;;;;;;;5007947;28;20049;-74
2022/11/15 00:29:48;;;;;;;47.53;30.80;;;;;;;;;;4998340;28;20053;-74
2022/11/15 00:32:32;;;;;;;43.90;28.65;;;;;;;;;;4999487;28;20041;-74
2022/11/15 00:35:17;;;;;;;49.17;29.48;;;;;;;;;;5000361;28;20566;-74
2022/11/15 00:38:02;;;;;;;43.10;28.73;;;;;;;;;;5009216;28;20132;-74
2022/11/15 00:40:48;;;;;;;44.17;27.92;;;;;;;;;;5006828;28;20129;-74
2022/11/15 00:43:33;;;;;;;46.10;29.35;;;;;;;;;;5007035;28;20048;-74
2022/11/15 00:46:18;;;;;;;46.65;30.88;;;;;;;;;;5008831;28;20068;-74
2022/11/15 00:49:02;;;;;;;52.50;32.38;;;;;;;;;;5008601;28;20049;-74
2022/11/15 00:51:47;;;;;;;61.38;33.85;;;;;;;;;;5002169;28;20088;-74
2022/11/15 00:54:31;;;;;;;57.58;33.83;;;;;;;;;;5005578;28;20161;-74
2022/11/15 00:57:16;;;;;;;53.53;32.22;;;;;;;;;;5004826;28;20053;-74
2022/11/15 01:00:00;;;;;;;55.08;33.45;;;;;;;;;;5008796;28;20411;-74
2022/11/15 01:02:45;;;;;;;56.15;30.42;;;;;;;;;;5001747;28;20044;-74
2022/11/15 01:05:29;;;;;;;50.95;30.42;;;;;;;;;;5004489;28;20048;-74
2022/11/15 01:08:17;;;;;;;46.55;28.88;;;;;;;;;;5005032;28;20053;-74
2022/11/15 01:11:04;;;;;;;52.50;29.67;;;;;;;;;;5005920;28;20133;-73
2022/11/15 01:13:48;;;;;;;54.17;30.05;;;;;;;;;;5008858;28;20056;-73
2022/11/15 01:16:33;;;;;;;47.75;27.02;;;;;;;;;;5005358;28;20057;-73
2022/11/15 01:19:18;;;;;;;43.90;27.65;;;;;;;;;;5004734;28;20258;-73
2022/11/15 01:22:03;;;;;;;46.90;28.13;;;;;;;;;;4999200;28;20526;-73
2022/11/15 01:24:49;;;;;;;43.03;26.80;;;;;;;;;;5011077;28;20132;-72
2022/11/15 01:27:34;;;;;;;48.05;26.88;;;;;;;;;;5002754;28;20149;-72
2022/11/15 01:30:19;;;;;;;41.92;26.55;;;;;;;;;;5008526;28;20131;-72
2022/11/15 01:33:03;;;;;;;40.25;24.45;;;;;;;;;;5006635;28;20057;-73
2022/11/15 01:35:48;;;;;;;37.70;22.50;;;;;;;;;;5007302;28;20052;-73
2022/11/15 01:38:33;;;;;;;39.22;23.25;;;;;;;;;;5002292;28;20088;-72
2022/11/15 01:41:20;;;;;;;32.90;22.27;;;;;;;;;;5006621;28;20076;-72
2022/11/15 01:44:41;;;;;;;36.55;22.98;;;;;;;;;;4999693;28;20408;-72
2022/11/15 01:47:37;;;;;;;39.25;23.67;;;;;;;;;;5002279;28;20494;-72
2022/11/15 01:50:31;;;;;;;35.38;24.02;;;;;;;;;;5014988;28;20056;-73
2022/11/15 01:53:19;;;;;;;40.33;23.73;;;;;;;;;;5000803;28;20064;-74
2022/11/15 01:56:08;;;;;;;34.38;22.75;;;;;;;;;;5007401;28;20044;-74
2022/11/15 01:58:55;;;;;;;39.40;23.20;;;;;;;;;;5009431;28;20045;-72
2022/11/15 02:01:40;;;;;;;44.47;23.30;;;;;;;;;;5003482;28;20073;-73
2022/11/15 02:04:28;;;;;;;39.10;23.88;;;;;;;;;;5003676;28;20065;-73
2022/11/15 02:07:18;;;;;;;45.22;24.73;;;;;;;;;;5006422;28;20053;-73
2022/11/15 02:10:12;;;;;;;44.55;24.63;;;;;;;;;;5000883;28;20099;-73
2022/11/15 02:13:00;;;;;;;39.38;23.55;;;;;;;;;;5000732;28;20502;-73
2022/11/15 02:16:09;;;;;;;41.28;24.42;;;;;;;;;;5008855;28;20045;-73
2022/11/15 02:19:23;;;;;;;45.25;26.13;;;;;;;;;;5008329;28;20073;-73
2022/11/15 02:22:22;;;;;;;44.75;26.17;;;;;;;;;;4974301;28;20057;-73
2022/11/15 02:25:28;;;;;;;44.88;28.00;;;;;;;;;;5002804;28;20115;-74
2022/11/15 02:28:34;;;;;;;45.67;27.70;;;;;;;;;;5004858;28;20137;-73
2022/11/15 02:31:40;;;;;;;45.67;26.33;;;;;;;;;;5005828;28;20052;-73
2022/11/15 02:34:37;;;;;;;42.63;24.90;;;;;;;;;;5005608;28;20054;-73
2022/11/15 02:37:43;;;;;;;41.25;24.23;;;;;;;;;;5020620;28;20522;-73
2022/11/15 02:40:52;;;;;;;40.67;25.38;;;;;;;;;;5003923;28;20596;-73
2022/11/15 02:43:56;;;;;;;42.17;25.58;;;;;;;;;;5003178;28;20042;-73
2022/11/15 02:50:12;;;;;;;42.72;27.88;;;;;;;;;;4964196;28;20296;-73
2022/11/15 02:52:56;;;;;;;41.17;24.83;;;;;;;;;;4994230;28;20045;-73
2022/11/15 02:55:49;;;;;;;42.83;26.48;;;;;;;;;;5006733;28;20514;-73
2022/11/15 02:58:55;;;;;;;42.33;25.53;;;;;;;;;;5013667;28;20097;-73
2022/11/15 03:01:52;;;;;;;38.00;25.13;;;;;;;;;;5003447;28;20044;-73
2022/11/15 03:05:00;;;;;;;36.78;23.15;;;;;;;;;;5006037;28;20049;-73
2022/11/15 03:07:50;;;;;;;38.28;24.02;;;;;;;;;;5006147;28;20113;-73
2022/11/15 03:10:56;;;;;;;41.85;26.95;;;;;;;;;;4999794;28;20048;-73
2022/11/15 03:13:47;;;;;;;37.85;25.17;;;;;;;;;;5008231;28;20522;-73
2022/11/15 03:16:39;;;;;;;40.72;25.60;;;;;;;;;;5002239;28;20137;-73
2022/11/15 03:19:32;;;;;;;41.42;27.27;;;;;;;;;;5004020;28;20085;-73
2022/11/15 03:22:21;;;;;;;38.38;25.60;;;;;;;;;;5009841;28;20056;-72
2022/11/15 03:25:10;;;;;;;43.03;26.30;;;;;;;;;;5006068;28;20050;-74
2022/11/15 03:27:57;;;;;;;37.83;26.17;;;;;;;;;;4999505;28;20081;-72
2022/11/15 03:30:43;;;;;;;39.95;24.38;;;;;;;;;;5006204;28;20138;-72
2022/11/15 03:33:29;;;;;;;38.42;24.63;;;;;;;;;;5012413;28;20415;-74
2022/11/15 03:36:14;;;;;;;35.60;23.55;;;;;;;;;;5005430;28;20557;-74
2022/11/15 03:39:04;;;;;;;39.38;24.58;;;;;;;;;;5009986;28;20122;-73
2022/11/15 03:42:20;;;;;;;36.60;24.38;;;;;;;;;;5005604;28;20092;-72
2022/11/15 03:45:14;;;;;;;39.60;23.40;;;;;;;;;;5005591;28;20108;-74
2022/11/15 03:48:12;;;;;;;38.13;24.63;;;;;;;;;;5008667;28;20438;-74
2022/11/15 03:50:57;;;;;;;40.55;23.45;;;;;;;;;;5001440;28;20421;-72
2022/11/15 03:53:42;;;;;;;39.75;23.95;;;;;;;;;;5003764;28;20045;-73
2022/11/15 03:56:27;;;;;;;40.83;24.33;;;;;;;;;;5009615;28;20061;-72
2022/11/15 03:59:11;;;;;;;41.90;25.88;;;;;;;;;;4994495;28;20048;-72
2022/11/15 04:01:56;;;;;;;46.85;24.83;;;;;;;;;;4992962;28;20053;-73
2022/11/15 04:04:40;;;;;;;42.72;25.95;;;;;;;;;;5004431;28;20120;-73
2022/11/15 04:07:25;;;;;;;43.17;25.83;;;;;;;;;;5012558;28;20104;-72
2022/11/15 04:10:11;;;;;;;47.67;26.77;;;;;;;;;;5013696;28;20168;-72
2022/11/15 04:12:55;;;;;;;49.05;26.75;;;;;;;;;;5002366;28;20045;-72
2022/11/15 04:15:40;;;;;;;49.90;28.02;;;;;;;;;;5012465;28;20509;-72
2022/11/15 04:18:25;;;;;;;45.42;25.10;;;;;;;;;;4998842;28;20521;-74
2022/11/15 04:24:13;;;;;;;45.13;25.75;;;;;;;;;;5013136;28;20048;-74
2022/11/15 04:26:58;;;;;;;42.55;26.40;;;;;;;;;;5013693;28;20104;-73
2022/11/15 04:29:42;;;;;;;46.08;25.40;;;;;;;;;;5012755;28;20052;-73
2022/11/15 04:32:27;;;;;;;47.25;27.73;;;;;;;;;;4998182;28;20045;-73
2022/11/15 04:35:11;;;;;;;48.20;25.88;;;;;;;;;;5009297;28;20057;-73
2022/11/15 04:37:57;;;;;;;48.47;27.42;;;;;;;;;;5013709;28;20457;-73
2022/11/15 04:40:41;;;;;;;48.55;27.00;;;;;;;;;;5013018;28;20135;-73
2022/11/15 04:43:26;;;;;;;48.17;26.95;;;;;;;;;;5013605;28;20153;-73
2022/11/15 04:46:10;;;;;;;42.95;24.65;;;;;;;;;;5017074;28;20462;-73
2022/11/15 04:48:55;;;;;;;45.97;24.77;;;;;;;;;;5016064;28;20068;-72
2022/11/15 04:51:40;;;;;;;42.30;24.80;;;;;;;;;;5030696;28;20063;-72
2022/11/15 04:54:24;;;;;;;41.10;23.02;;;;;;;;;;5013738;28;20472;-73
2022/11/15 04:57:09;;;;;;;51.38;23.60;;;;;;;;;;5012333;28;20064;-74
2022/11/15 04:59:53;;;;;;;45.05;23.50;;;;;;;;;;5012967;28;20049;-73
2022/11/15 05:05:41;;;;;;;44.50;25.48;;;;;;;;;;5024333;28;20474;-74
2022/11/15 05:08:26;;;;;;;42.03;23.30;;;;;;;;;;5012322;28;20403;-73
2022/11/15 05:11:10;;;;;;;44.33;24.05;;;;;;;;;;5010904;28;20081;-73
2022/11/15 05:13:55;;;;;;;44.67;25.67;;;;;;;;;;5012140;28;20053;-74
2022/11/15 05:16:40;;;;;;;42.75;24.80;;;;;;;;;;5010704;28;20052;-73
2022/11/15 05:19:25;;;;;;;44.42;25.73;;;;;;;;;;5004339;28;20055;-73
2022/11/15 05:22:09;;;;;;;51.47;27.60;;;;;;;;;;5011741;28;20512;-73
2022/11/15 05:24:54;;;;;;;42.17;24.83;;;;;;;;;;4992012;28;20416;-72
2022/11/15 05:27:38;;;;;;;46.03;25.95;;;;;;;;;;4992487;28;20113;-72
2022/11/15 05:30:23;;;;;;;39.17;25.02;;;;;;;;;;4992751;28;20132;-73
2022/11/15 05:33:07;;;;;;;38.75;25.10;;;;;;;;;;5011731;28;20495;-72
2022/11/15 05:36:23;;;;;;;42.50;25.85;;;;;;;;;;5007543;28;20057;-72
2022/11/15 05:39:08;;;;;;;44.58;27.20;;;;;;;;;;4991870;28;20711;-73
2022/11/15 05:42:07;;;;;;;40.83;23.05;;;;;;;;;;4991392;28;20057;-74
2022/11/15 05:44:52;;;;;;;30.42;19.45;;;;;;;;;;4991776;28;20053;-73
2022/11/15 05:47:39;;;;;;;31.08;19.20;;;;;;;;;;5009672;28;20056;-73
2022/11/15 05:50:24;;;;;;;29.17;19.73;;;;;;;;;;5012033;28;20139;-73
2022/11/15 05:53:09;;;;;;;36.92;21.70;;;;;;;;;;5012024;28;20553;-72
2022/11/15 05:55:54;;;;;;;35.97;21.15;;;;;;;;;;5011676;28;20088;-73
2022/11/15 05:58:39;;;;;;;39.78;22.45;;;;;;;;;;5009878;28;20111;-72
2022/11/15 06:01:26;;;;;;;39.38;22.13;;;;;;;;;;5011386;28;20422;-73
2022/11/15 06:04:10;;;;;;;40.88;22.08;;;;;;;;;;5011420;28;20060;-73
2022/11/15 06:06:55;;;;;;;36.35;22.02;;;;;;;;;;5011021;28;20053;-73
2022/11/15 06:09:39;;;;;;;43.22;24.48;;;;;;;;;;5011069;28;20048;-73
2022/11/15 06:12:23;;;;;;;45.45;25.95;;;;;;;;;;5008635;28;20053;-73
2022/11/15 06:15:08;;;;;;;58.60;29.23;;;;;;;;;;5011453;28;20052;-73
2022/11/15 06:17:57;;;;;;;42.58;24.60;;;;;;;;;;5011141;28;20140;-74
2022/11/15 06:20:41;;;;;;;46.17;24.00;;;;;;;;;;5011639;28;20060;-72
2022/11/15 06:23:27;;;;;;;38.83;22.95;;;;;;;;;;5011698;28;20129;-75
2022/11/15 06:26:12;;;;;;;37.15;22.65;;;;;;;;;;4995141;28;20057;-73
2022/11/15 06:28:56;;;;;;;40.67;22.30;;;;;;;;;;5010231;28;20080;-72
2022/11/15 06:31:41;;;;;;;38.70;23.75;;;;;;;;;;5014243;28;20041;-71
2022/11/15 06:34:25;;;;;;;41.17;23.10;;;;;;;;;;4991002;28;20146;-71
2022/11/15 06:37:10;;;;;;;47.65;23.50;;;;;;;;;;4980491;28;20491;-73
2022/11/15 06:39:55;;;;;;;53.35;24.80;;;;;;;;;;5012585;28;20052;-72
2022/11/15 06:42:39;;;;;;;43.75;24.30;;;;;;;;;;4995669;28;20046;-72
2022/11/15 06:45:24;;;;;;;40.75;23.13;;;;;;;;;;4998382;28;20101;-73
2022/11/15 06:48:08;;;;;;;45.08;23.63;;;;;;;;;;5013293;28;20115;-72
2022/11/15 06:50:55;;;;;;;47.58;23.38;;;;;;;;;;5015243;28;20132;-71
2022/11/15 06:53:39;;;;;;;35.28;21.52;;;;;;;;;;5011967;28;20049;-70
2022/11/15 06:56:23;;;;;;;32.17;20.98;;;;;;;;;;5014705;28;20533;-71
2022/11/15 06:59:08;;;;;;;39.88;22.52;;;;;;;;;;5014216;28;20052;-71
2022/11/15 07:01:52;;;;;;;39.28;22.52;;;;;;;;;;5015393;28;20052;-71
2022/11/15 07:04:37;;;;;;;31.15;20.42;;;;;;;;;;5011471;28;20121;-72
2022/11/15 07:07:21;;;;;;;38.42;19.80;;;;;;;;;;5013743;28;20144;-71
2022/11/15 07:10:07;;;;;;;46.97;22.60;;;;;;;;;;5008894;28;20509;-71
2022/11/15 07:12:53;;;;;;;39.35;21.15;;;;;;;;;;5012199;28;20503;-71
2022/11/15 07:15:37;;;;;;;40.03;23.02;;;;;;;;;;5008849;28;20045;-71
2022/11/15 07:18:22;;;;;;;40.63;22.17;;;;;;;;;;5014033;28;20148;-71
2022/11/15 07:21:09;;;;;;;40.50;23.55;;;;;;;;;;5012908;28;20053;-71
2022/11/15 07:23:54;;;;;;;49.90;24.13;;;;;;;;;;5013610;28;20081;-71
2022/11/15 07:26:39;;;;;;;51.25;27.83;;;;;;;;;;5012686;28;20053;-71
2022/11/15 07:29:23;;;;;;;45.35;27.65;;;;;;;;;;5011230;28;20052;-71
2022/11/15 07:32:09;;;;;;;56.17;28.17;;;;;;;;;;5011118;28;20052;-71
2022/11/15 07:34:54;;;;;;;48.13;28.75;;;;;;;;;;5011990;28;20053;-72
2022/11/15 07:37:39;;;;;;;55.00;30.23;;;;;;;;;;5012242;28;20169;-72
2022/11/15 07:40:25;;;;;;;51.55;28.23;;;;;;;;;;5012406;28;20065;-73
2022/11/15 07:43:09;;;;;;;47.75;28.23;;;;;;;;;;5009834;28;20052;-70
2022/11/15 07:45:54;;;;;;;53.60;27.95;;;;;;;;;;5011595;28;20510;-72
2022/11/15 07:48:40;;;;;;;50.17;26.98;;;;;;;;;;5011570;28;20053;-75
2022/11/15 07:51:24;;;;;;;46.42;27.27;;;;;;;;;;5012536;28;20454;-73
2022/11/15 07:54:08;;;;;;;51.53;28.65;;;;;;;;;;5000573;28;20052;-70
2022/11/15 07:56:53;;;;;;;43.65;26.90;;;;;;;;;;5012664;28;20052;-72
2022/11/15 07:59:38;;;;;;;41.13;26.10;;;;;;;;;;5013418;28;20501;-73
2022/11/15 08:02:22;;;;;;;41.50;26.00;;;;;;;;;;5012315;28;20049;-70
2022/11/15 08:05:07;;;;;;;44.88;26.48;;;;;;;;;;5009991;28;20545;-71
2022/11/15 08:07:51;;;;;;;49.20;29.00;;;;;;;;;;4993702;28;20099;-69
2022/11/15 08:10:36;;;;;;;50.60;27.45;;;;;;;;;;5024349;28;20100;-70
2022/11/15 08:13:21;;;;;;;40.33;25.52;;;;;;;;;;5033049;28;20128;-69
2022/11/15 08:16:06;;;;;;;44.05;27.58;;;;;;;;;;5009073;28;20048;-70
2022/11/15 08:18:51;;;;;;;45.67;27.05;;;;;;;;;;5001807;28;20061;-72
2022/11/15 08:21:37;;;;;;;47.42;26.80;;;;;;;;;;4999203;28;20172;-73
2022/11/15 08:24:21;;;;;;;46.10;24.98;;;;;;;;;;5008010;28;20059;-72
2022/11/15 08:27:14;;;;;;;40.33;25.48;;;;;;;;;;5008879;28;20072;-70
2022/11/15 08:29:58;;;;;;;38.33;24.13;;;;;;;;;;5007691;28;20555;-70
2022/11/15 08:32:43;;;;;;;41.20;24.73;;;;;;;;;;5013274;28;20053;-71
2022/11/15 08:35:28;;;;;;;36.15;24.60;;;;;;;;;;5010119;28;20060;-71
2022/11/15 08:38:13;;;;;;;43.03;25.77;;;;;;;;;;5012453;28;20111;-71
2022/11/15 08:41:04;;;;;;;39.95;23.60;;;;;;;;;;5002295;28;20073;-70
2022/11/15 08:43:49;;;;;;;36.33;24.48;;;;;;;;;;5002846;28;20112;-70
2022/11/15 08:46:33;;;;;;;43.88;24.67;;;;;;;;;;5011748;28;20116;-73
2022/11/15 08:49:18;;;;;;;40.10;23.67;;;;;;;;;;5010273;28;20127;-70
2022/11/15 08:52:02;;;;;;;37.20;23.90;;;;;;;;;;5010581;28;20048;-71
2022/11/15 08:54:47;;;;;;;35.55;23.48;;;;;;;;;;5011998;28;20152;-70
2022/11/15 08:57:32;;;;;;;39.92;24.08;;;;;;;;;;5012626;28;20048;-70
2022/11/15 09:00:17;;;;;;;33.30;22.77;;;;;;;;;;5011284;28;20104;-72
2022/11/15 09:03:05;;;;;;;36.25;21.65;;;;;;;;;;4998557;28;20052;-70
2022/11/15 09:05:57;;;;;;;35.42;22.77;;;;;;;;;;5010899;28;20072;-70
2022/11/15 09:08:42;;;;;;;32.47;22.13;;;;;;;;;;5007515;28;20116;-71
2022/11/15 09:11:26;;;;;;;35.72;21.48;;;;;;;;;;5026849;28;20045;-70
2022/11/15 09:14:12;;;;;;;38.88;21.23;;;;;;;;;;5009558;28;20092;-71
2022/11/15 09:16:57;;;;;;;31.95;22.55;;;;;;;;;;5006936;28;20056;-71
2022/11/15 09:19:43;;;;;;;37.85;22.50;;;;;;;;;;5008493;28;20084;-71
2022/11/15 09:22:28;;;;;;;32.92;20.63;;;;;;;;;;5009647;28;20041;-72
2022/11/15 09:25:13;;;;;;;34.17;22.27;;;;;;;;;;5010409;28;20068;-73
2022/11/15 09:27:58;;;;;;;32.40;22.20;;;;;;;;;;5008559;28;20505;-72
2022/11/15 09:30:42;;;;;;;33.33;21.00;;;;;;;;;;5010880;28;20100;-71
2022/11/15 09:33:27;;;;;;;30.77;20.80;;;;;;;;;;5009626;28;20414;-71
2022/11/15 09:36:12;;;;;;;46.00;27.65;;;;;;;;;;5009588;28;20139;-72
2022/11/15 09:38:58;;;;;;;47.28;26.42;;;;;;;;;;5008634;28;20049;-73
2022/11/15 09:41:49;;;;;;;35.33;21.70;;;;;;;;;;5005894;28;20095;-72
2022/11/15 09:44:46;;;;;;;39.50;22.15;;;;;;;;;;5010439;28;20092;-71
2022/11/15 09:48:08;;;;;;;32.67;20.88;;;;;;;;;;5008059;28;20087;-71
2022/11/15 09:50:50;;;;;;;31.50;21.13;;;;;;;;;;5021043;28;20083;-71
2022/11/15 09:53:28;;;;;;;34.88;20.23;;;;;;;;;;5009307;28;20491;-72
2022/11/15 09:56:01;;;;;;;33.15;21.15;;;;;;;;;;5004835;28;20029;-71
2022/11/15 09:58:39;;;;;;;27.97;19.00;;;;;;;;;;5006926;28;21055;-71
2022/11/15 10:01:19;;;;;;;31.45;20.48;;;;;;;;;;5009844;28;20057;-72
2022/11/15 10:03:45;;;;;;;31.60;21.70;;;;;;;;;;5011365;28;20033;-73
2022/11/15 10:06:25;;;;;;;32.15;21.27;;;;;;;;;;5010578;28;20060;-74
2022/11/15 10:09:00;;;;;;;31.27;19.27;;;;;;;;;;5007194;28;20476;-73
2022/11/15 10:11:36;;;;;;;29.05;20.98;;;;;;;;;;5007540;28;20136;-74
2022/11/15 10:14:11;;;;;;;31.23;20.40;;;;;;;;;;5011168;28;20108;-74
2022/11/15 10:16:49;;;;;;;33.28;20.63;;;;;;;;;;5010605;28;20030;-73
2022/11/15 10:19:32;;;;;;;31.75;20.85;;;;;;;;;;5007032;28;20062;-73
2022/11/15 10:22:10;;;;;;;31.40;19.92;;;;;;;;;;5011265;28;20060;-75
2022/11/15 10:24:41;;;;;;;29.60;20.40;;;;;;;;;;5003702;28;20116;-73
2022/11/15 10:27:18;;;;;;;32.22;20.15;;;;;;;;;;5009448;28;20026;-73
2022/11/15 10:29:47;;;;;;;32.10;19.52;;;;;;;;;;5009976;28;20060;-74
2022/11/15 10:32:14;;;;;;;28.77;18.42;;;;;;;;;;5010762;28;20026;-75
2022/11/15 10:34:41;;;;;;;28.10;19.08;;;;;;;;;;5009075;28;20148;-76
2022/11/15 10:37:07;;;;;;;26.92;17.42;;;;;;;;;;5005386;28;20076;-75
2022/11/15 10:39:33;;;;;;;28.20;20.13;;;;;;;;;;5016289;28;20041;-75
2022/11/15 10:42:16;;;;;;;31.63;18.30;;;;;;;;;;5029047;28;20088;-75
2022/11/15 10:44:44;;;;;;;29.95;17.80;;;;;;;;;;5004289;28;20103;-74
2022/11/15 10:47:31;;;;;;;25.88;17.92;;;;;;;;;;5012061;28;20030;-75
2022/11/15 10:49:58;;;;;;;28.23;18.50;;;;;;;;;;4999989;28;20114;-75
2022/11/15 10:52:25;;;;;;;25.50;16.92;;;;;;;;;;4991075;28;20023;-75
2022/11/15 10:55:13;;;;;;;25.08;16.73;;;;;;;;;;5009670;28;20041;-76
2022/11/15 10:57:39;;;;;;;32.28;18.10;;;;;;;;;;5029449;28;20486;-74
2022/11/15 11:00:27;;;;;;;30.48;18.23;;;;;;;;;;5007326;28;20414;-77
2022/11/15 11:02:56;;;;;;;30.45;18.55;;;;;;;;;;4998234;28;20038;-76
2022/11/15 11:05:34;;;;;;;28.48;18.15;;;;;;;;;;4995378;28;20045;-75
2022/11/15 11:08:15;;;;;;;35.17;17.40;;;;;;;;;;4989395;28;20030;-75
2022/11/15 11:10:59;;;;;;;28.05;17.25;;;;;;;;;;5024139;28;20044;-76
2022/11/15 11:13:28;;;;;;;;;;;;;;;;;;4995997;28;20041;-75
2022/11/15 11:16:14;;;;;;;22.85;13.98;;;;;;;;;;5008606;28;19910;-76
2022/11/15 11:19:05;;;;;;;22.92;15.63;;;;;;;;;;5012409;28;20232;-74
2022/11/15 11:22:09;;;;;;;21.05;15.18;;;;;;;;;;5013572;28;20483;-74
2022/11/15 11:25:08;;;;;;;21.98;13.98;;;;;;;;;;5011561;28;20132;-74
2022/11/15 11:27:37;;;;;;;23.02;14.35;;;;;;;;;;5005377;28;20034;-75
2022/11/15 11:30:23;;;;;;;24.38;15.18;;;;;;;;;;5011410;28;20034;-75
2022/11/15 11:32:55;;;;;;;21.52;14.98;;;;;;;;;;5013123;28;20033;-74
2022/11/15 11:35:51;;;;;;;23.52;14.43;;;;;;;;;;5011928;28;20087;-75
2022/11/15 11:38:51;;;;;;;19.48;13.10;;;;;;;;;;5004706;28;20030;-74
2022/11/15 11:41:45;;;;;;;25.10;13.40;;;;;;;;;;5011570;28;20479;-76
2022/11/15 11:44:38;;;;;;;25.08;14.38;;;;;;;;;;5013857;28;20050;-76
2022/11/15 11:47:24;;;;;;;21.67;14.45;;;;;;;;;;5003839;28;20065;-76
2022/11/15 11:50:02;;;;;;;21.10;13.32;;;;;;;;;;5013683;28;20069;-75
2022/11/15 11:52:54;;;;;;;18.63;13.18;;;;;;;;;;5012367;28;20026;-76
2022/11/15 11:55:24;;;;;;;19.98;12.57;;;;;;;;;;5012488;28;20037;-75
2022/11/15 11:58:40;;;;;;;18.85;13.40;;;;;;;;;;5012969;28;20212;-75
2022/11/15 12:01:16;;;;;;;18.10;12.35;;;;;;;;;;4950671;28;20113;-75
2022/11/15 12:03:46;;;;;;;19.50;12.90;;;;;;;;;;5001211;28;20121;-75
2022/11/15 12:06:50;;;;;;;22.45;13.57;;;;;;;;;;5012288;28;20033;-75
2022/11/15 12:09:38;;;;;;;23.77;13.88;;;;;;;;;;5011521;28;20061;-75
2022/11/15 12:12:40;;;;;;;17.05;11.98;;;;;;;;;;5012080;28;20025;-75
2022/11/15 12:15:10;;;;;;;17.98;12.68;;;;;;;;;;5011959;28;20030;-76
2022/11/15 12:17:38;;;;;;;19.27;13.52;;;;;;;;;;5010456;28;20021;-76
2022/11/15 12:20:35;;;;;;;21.33;13.80;;;;;;;;;;5010674;28;20763;-77
2022/11/15 12:23:31;;;;;;;18.40;13.40;;;;;;;;;;5007329;28;20037;-77
2022/11/15 12:26:06;;;;;;;19.60;12.63;;;;;;;;;;5029976;28;20041;-76
2022/11/15 12:28:54;;;;;;;21.95;13.80;;;;;;;;;;5010262;28;20032;-76
2022/11/15 12:31:20;;;;;;;19.88;13.55;;;;;;;;;;5011462;28;20029;-76
2022/11/15 12:33:47;;;;;;;20.33;12.48;;;;;;;;;;5008957;28;20025;-77
2022/11/15 12:36:22;;;;;;;21.75;12.63;;;;;;;;;;5013113;28;20037;-76
2022/11/15 12:38:54;;;;;;;19.25;12.48;;;;;;;;;;5021736;28;20034;-77
2022/11/15 12:41:41;;;;;;;20.25;12.50;;;;;;;;;;5013255;28;20080;-75
2022/11/15 12:44:12;;;;;;;18.92;12.15;;;;;;;;;;5009282;28;20045;-75
2022/11/15 12:46:38;;;;;;;18.45;12.15;;;;;;;;;;5012051;28;20037;-76
2022/11/15 12:49:11;;;;;;;16.00;11.75;;;;;;;;;;5009084;28;20117;-75
2022/11/15 12:51:43;;;;;;;19.37;13.13;;;;;;;;;;5005388;28;20026;-75
2022/11/15 12:54:21;;;;;;;18.73;12.30;;;;;;;;;;5009264;28;20449;-77
2022/11/15 12:57:03;;;;;;;19.50;12.48;;;;;;;;;;5025691;28;20026;-75
2022/11/15 12:59:58;;;;;;;20.25;12.95;;;;;;;;;;5011036;28;20042;-78
2022/11/15 13:02:32;;;;;;;17.92;12.70;;;;;;;;;;5009071;28;20122;-76
2022/11/15 13:05:18;;;;;;;25.45;13.57;;;;;;;;;;5005499;28;20030;-75
2022/11/15 13:07:46;;;;;;;20.35;13.68;;;;;;;;;;4998745;28;20034;-75
2022/11/15 13:10:12;;;;;;;18.75;12.93;;;;;;;;;;5006614;28;20022;-74
2022/11/15 13:12:44;;;;;;;19.23;12.57;;;;;;;;;;5000602;28;20030;-75
2022/11/15 13:15:13;;;;;;;21.70;14.77;;;;;;;;;;5006280;28;20034;-76
2022/11/15 13:17:47;;;;;;;18.80;13.45;;;;;;;;;;4998074;28;20061;-75
2022/11/15 13:20:14;;;;;;;19.27;12.32;;;;;;;;;;5003729;28;20050;-74
2022/11/15 13:23:02;;;;;;;19.58;12.10;;;;;;;;;;5002764;28;20084;-74
2022/11/15 13:25:37;;;;;;;17.02;11.90;;;;;;;;;;5024692;28;20056;-74
2022/11/15 13:28:10;;;;;;;21.75;13.63;;;;;;;;;;5009769;28;20510;-74
2022/11/15 13:30:37;;;;;;;18.65;13.40;;;;;;;;;;4998213;28;20065;-74
2022/11/15 13:33:25;;;;;;;28.00;15.13;;;;;;;;;;5011081;28;20479;-74
2022/11/15 13:35:57;;;;;;;21.20;13.27;;;;;;;;;;5005445;28;20034;-73
2022/11/15 13:38:29;;;;;;;19.83;12.77;;;;;;;;;;5000454;28;20497;-75
2022/11/15 13:40:57;;;;;;;23.35;13.85;;;;;;;;;;5007535;28;20037;-74
2022/11/15 13:43:23;;;;;;;26.00;15.02;;;;;;;;;;5011504;28;20475;-76
2022/11/15 13:46:25;;;;;;;23.27;13.77;;;;;;;;;;5009759;28;20040;-73
2022/11/15 13:49:03;;;;;;;25.20;15.65;;;;;;;;;;5011823;28;20448;-74
2022/11/15 13:51:33;;;;;;;22.48;15.18;;;;;;;;;;5011888;28;20455;-73
2022/11/15 13:54:16;;;;;;;26.13;16.92;;;;;;;;;;5010217;28;20092;-74
2022/11/15 13:56:49;;;;;;;22.40;14.87;;;;;;;;;;5009219;28;20030;-74
2022/11/15 13:59:34;;;;;;;22.08;14.63;;;;;;;;;;5009083;28;20279;-74
2022/11/15 14:02:19;;;;;;;21.27;15.55;;;;;;;;;;5025613;28;20172;-74
2022/11/15 14:04:51;;;;;;;21.85;14.75;;;;;;;;;;5010878;28;20514;-74
2022/11/15 14:07:21;;;;;;;22.67;15.05;;;;;;;;;;5011278;28;20033;-75
2022/11/15 14:09:48;;;;;;;22.60;15.35;;;;;;;;;;5011164;28;20041;-75
2022/11/15 14:12:49;;;;;;;23.17;15.77;;;;;;;;;;5011658;28;20034;-73
2022/11/15 14:15:35;;;;;;;23.05;15.20;;;;;;;;;;5009877;28;20613;-75
2022/11/15 14:18:02;;;;;;;24.77;15.93;;;;;;;;;;5010965;28;20033;-74
2022/11/15 14:20:39;;;;;;;22.77;16.10;;;;;;;;;;5010771;28;20061;-73
2022/11/15 14:23:18;;;;;;;26.80;18.25;;;;;;;;;;5001763;28;20041;-73
2022/11/15 14:25:56;;;;;;;25.20;16.38;;;;;;;;;;5007497;28;20197;-74
2022/11/15 14:28:22;;;;;;;26.23;16.77;;;;;;;;;;5011835;28;20121;-72
2022/11/15 14:30:50;;;;;;;24.98;15.90;;;;;;;;;;5010728;28;20123;-73
2022/11/15 14:33:38;;;;;;;25.30;17.13;;;;;;;;;;5010755;28;20492;-72
2022/11/15 14:36:26;;;;;;;26.83;17.65;;;;;;;;;;5002865;28;20099;-72
2022/11/15 14:38:54;;;;;;;25.00;17.02;;;;;;;;;;5009754;28;20064;-73
2022/11/15 14:41:26;;;;;;;25.23;17.45;;;;;;;;;;5009489;28;20088;-74
2022/11/15 14:43:53;;;;;;;25.23;18.08;;;;;;;;;;5004806;28;20029;-73
2022/11/15 14:46:19;;;;;;;29.77;17.30;;;;;;;;;;5008096;28;20034;-74
2022/11/15 14:48:45;;;;;;;32.40;17.63;;;;;;;;;;5011103;28;20045;-72
2022/11/15 14:51:16;;;;;;;26.65;17.98;;;;;;;;;;5014612;28;20391;-75
2022/11/15 14:53:44;;;;;;;26.42;17.17;;;;;;;;;;5009670;28;20050;-75
2022/11/15 14:56:15;;;;;;;28.48;17.13;;;;;;;;;;5010174;28;20502;-75
2022/11/15 14:58:43;;;;;;;31.40;17.92;;;;;;;;;;5015618;28;20052;-76
2022/11/15 15:01:13;;;;;;;28.20;17.23;;;;;;;;;;5017545;28;20521;-77
2022/11/15 15:03:39;;;;;;;29.63;17.15;;;;;;;;;;5031070;28;20405;-77
2022/11/15 15:06:05;;;;;;;34.55;19.67;;;;;;;;;;5016538;28;20076;-76
2022/11/15 15:08:31;;;;;;;31.30;19.38;;;;;;;;;;5015456;28;20037;-76
2022/11/15 15:10:57;;;;;;;30.80;19.40;;;;;;;;;;5010225;28;20025;-74
2022/11/15 15:13:24;;;;;;;30.65;19.27;;;;;;;;;;5026065;28;20113;-76
2022/11/15 15:15:51;;;;;;;29.52;18.02;;;;;;;;;;5013286;28;20030;-74
2022/11/15 15:18:18;;;;;;;28.48;18.85;;;;;;;;;;5012908;28;20052;-75
2022/11/15 15:20:47;;;;;;;29.65;18.25;;;;;;;;;;5010490;28;20549;-73
2022/11/15 15:23:16;;;;;;;32.22;19.00;;;;;;;;;;5010392;28;20038;-75
2022/11/15 15:25:43;;;;;;;32.85;20.33;;;;;;;;;;5007568;28;20022;-76
2022/11/15 15:28:09;;;;;;;30.20;19.02;;;;;;;;;;5012602;28;20053;-75
2022/11/15 15:30:35;;;;;;;30.10;18.98;;;;;;;;;;5012392;28;20478;-75
2022/11/15 15:33:01;;;;;;;34.55;19.65;;;;;;;;;;5011958;28;20038;-77
2022/11/15 15:35:31;;;;;;;30.90;18.27;;;;;;;;;;4994395;28;20037;-73
2022/11/15 15:37:58;;;;;;;32.17;18.08;;;;;;;;;;5006643;28;20498;-74
2022/11/15 15:40:25;;;;;;;28.25;18.27;;;;;;;;;;5013166;28;20084;-77
2022/11/15 15:42:51;;;;;;;28.58;17.23;;;;;;;;;;5011245;28;20128;-73
2022/11/15 15:45:18;;;;;;;31.02;17.75;;;;;;;;;;5009540;28;20049;-75
2022/11/15 15:47:45;;;;;;;27.42;18.33;;;;;;;;;;5011623;28;20586;-73
2022/11/15 15:50:14;;;;;;;29.08;18.13;;;;;;;;;;4993447;28;20026;-73
2022/11/15 15:52:40;;;;;;;26.83;17.35;;;;;;;;;;4993785;28;20223;-74
2022/11/15 15:55:06;;;;;;;30.27;18.20;;;;;;;;;;4998028;28;20113;-74
2022/11/15 15:57:33;;;;;;;34.15;18.15;;;;;;;;;;5004692;28;20038;-74
2022/11/15 15:59:58;;;;;;;29.00;18.25;;;;;;;;;;4993656;28;20033;-75